sensor_id;sensor_type;location;lat;lon;timestamp;temperature;humidity
20171;DHT22;10245;51.344;6.620;2023-07-30T00:01:05;16.50;84.20
20171;DHT22;10245;51.344;6.620;2023-07-30T00:03:28;16.50;84.60
20171;DHT22;10245;51.344;6.620;2023-07-30T00:05:54;16.50;84.80
20171;DHT22;10245;51.344;6.620;2023-07-30T00:08:17;16.40;84.90
20171;DHT22;10245;51.344;6.620;2023-07-30T00:10:41;16.40;85.30
20171;DHT22;10245;51.344;6.620;2023-07-30T00:13:04;16.30;85.50
20171;DHT22;10245;51.344;6.620;2023-07-30T00:15:27;16.20;86.10
20171;DHT22;10245;51.344;6.620;2023-07-30T00:17:50;16.20;86.20
20171;DHT22;10245;51.344;6.620;2023-07-30T00:20:14;16.20;86.80
20171;DHT22;10245;51.344;6.620;2023-07-30T00:22:38;16.10;87.00
20171;DHT22;10245;51.344;6.620;2023-07-30T00:25:01;16.10;87.30
20171;DHT22;10245;51.344;6.620;2023-07-30T00:27:25;16.10;87.50
20171;DHT22;10245;51.344;6.620;2023-07-30T00:29:48;16.10;87.50
20171;DHT22;10245;51.344;6.620;2023-07-30T00:32:12;16.00;87.80
20171;DHT22;10245;51.344;6.620;2023-07-30T00:34:37;16.00;87.70
20171;DHT22;10245;51.344;6.620;2023-07-30T00:37:01;16.00;87.70
20171;DHT22;10245;51.344;6.620;2023-07-30T00:39:25;16.00;87.60
20171;DHT22;10245;51.344;6.620;2023-07-30T00:41:48;16.00;87.50
20171;DHT22;10245;51.344;6.620;2023-07-30T00:44:12;16.00;87.50
20171;DHT22;10245;51.344;6.620;2023-07-30T00:46:36;16.00;87.40
20171;DHT22;10245;51.344;6.620;2023-07-30T00:48:59;16.00;87.40
20171;DHT22;10245;51.344;6.620;2023-07-30T00:51:23;15.90;87.40
20171;DHT22;10245;51.344;6.620;2023-07-30T00:53:48;15.90;87.70
20171;DHT22;10245;51.344;6.620;2023-07-30T00:56:13;15.80;87.50
20171;DHT22;10245;51.344;6.620;2023-07-30T00:58:37;15.80;87.70
20171;DHT22;10245;51.344;6.620;2023-07-30T01:01:00;15.70;88.00
20171;DHT22;10245;51.344;6.620;2023-07-30T01:03:24;15.70;88.10
20171;DHT22;10245;51.344;6.620;2023-07-30T01:05:48;15.60;88.00
20171;DHT22;10245;51.344;6.620;2023-07-30T01:08:11;15.60;88.30
20171;DHT22;10245;51.344;6.620;2023-07-30T01:10:38;15.60;88.50
20171;DHT22;10245;51.344;6.620;2023-07-30T01:13:05;15.50;88.40
20171;DHT22;10245;51.344;6.620;2023-07-30T01:15:30;15.50;88.40
20171;DHT22;10245;51.344;6.620;2023-07-30T01:17:54;15.50;88.70
20171;DHT22;10245;51.344;6.620;2023-07-30T01:20:17;15.50;88.80
20171;DHT22;10245;51.344;6.620;2023-07-30T01:22:42;15.50;88.80
20171;DHT22;10245;51.344;6.620;2023-07-30T01:25:06;15.40;88.80
20171;DHT22;10245;51.344;6.620;2023-07-30T01:27:33;15.30;88.90
20171;DHT22;10245;51.344;6.620;2023-07-30T01:30:03;15.30;88.90
20171;DHT22;10245;51.344;6.620;2023-07-30T01:32:30;15.30;89.10
20171;DHT22;10245;51.344;6.620;2023-07-30T01:34:55;15.30;89.10
20171;DHT22;10245;51.344;6.620;2023-07-30T01:37:19;15.20;89.00
20171;DHT22;10245;51.344;6.620;2023-07-30T01:39:46;15.20;89.30
20171;DHT22;10245;51.344;6.620;2023-07-30T01:42:11;15.10;89.30
20171;DHT22;10245;51.344;6.620;2023-07-30T01:44:35;15.20;89.30
20171;DHT22;10245;51.344;6.620;2023-07-30T01:46:58;15.10;89.20
20171;DHT22;10245;51.344;6.620;2023-07-30T01:49:22;15.10;89.20
20171;DHT22;10245;51.344;6.620;2023-07-30T01:51:45;15.00;89.40
20171;DHT22;10245;51.344;6.620;2023-07-30T01:54:09;15.00;89.40
20171;DHT22;10245;51.344;6.620;2023-07-30T01:56:33;15.00;89.50
20171;DHT22;10245;51.344;6.620;2023-07-30T01:58:56;15.00;89.30
20171;DHT22;10245;51.344;6.620;2023-07-30T02:01:20;15.00;89.50
20171;DHT22;10245;51.344;6.620;2023-07-30T02:03:43;15.00;89.50
20171;DHT22;10245;51.344;6.620;2023-07-30T02:06:07;14.90;89.50
20171;DHT22;10245;51.344;6.620;2023-07-30T02:08:30;15.00;89.60
20171;DHT22;10245;51.344;6.620;2023-07-30T02:10:55;15.00;89.50
20171;DHT22;10245;51.344;6.620;2023-07-30T02:13:21;14.90;89.50
20171;DHT22;10245;51.344;6.620;2023-07-30T02:15:44;14.90;89.80
20171;DHT22;10245;51.344;6.620;2023-07-30T02:18:08;14.80;89.80
20171;DHT22;10245;51.344;6.620;2023-07-30T02:20:32;14.80;89.90
20171;DHT22;10245;51.344;6.620;2023-07-30T02:22:56;14.80;89.90
20171;DHT22;10245;51.344;6.620;2023-07-30T02:25:19;14.80;89.80
20171;DHT22;10245;51.344;6.620;2023-07-30T02:27:42;14.70;89.90
20171;DHT22;10245;51.344;6.620;2023-07-30T02:30:08;14.70;89.80
20171;DHT22;10245;51.344;6.620;2023-07-30T02:32:31;14.70;89.80
20171;DHT22;10245;51.344;6.620;2023-07-30T02:34:55;14.60;90.00
20171;DHT22;10245;51.344;6.620;2023-07-30T02:37:18;14.60;89.90
20171;DHT22;10245;51.344;6.620;2023-07-30T02:39:41;14.50;89.60
20171;DHT22;10245;51.344;6.620;2023-07-30T02:42:05;14.50;90.00
20171;DHT22;10245;51.344;6.620;2023-07-30T02:44:28;14.50;90.10
20171;DHT22;10245;51.344;6.620;2023-07-30T02:46:53;14.50;90.20
20171;DHT22;10245;51.344;6.620;2023-07-30T02:49:16;14.50;90.10
20171;DHT22;10245;51.344;6.620;2023-07-30T02:51:39;14.50;90.20
20171;DHT22;10245;51.344;6.620;2023-07-30T02:54:06;14.50;90.20
20171;DHT22;10245;51.344;6.620;2023-07-30T02:56:31;14.50;90.10
20171;DHT22;10245;51.344;6.620;2023-07-30T02:58:54;14.40;90.10
20171;DHT22;10245;51.344;6.620;2023-07-30T03:01:17;14.50;90.30
20171;DHT22;10245;51.344;6.620;2023-07-30T03:03:42;14.40;90.30
20171;DHT22;10245;51.344;6.620;2023-07-30T03:06:06;14.30;90.40
20171;DHT22;10245;51.344;6.620;2023-07-30T03:08:29;14.30;90.40
20171;DHT22;10245;51.344;6.620;2023-07-30T03:10:53;14.20;90.40
20171;DHT22;10245;51.344;6.620;2023-07-30T03:13:16;14.20;90.50
20171;DHT22;10245;51.344;6.620;2023-07-30T03:15:40;14.20;90.50
20171;DHT22;10245;51.344;6.620;2023-07-30T03:18:03;14.20;90.50
20171;DHT22;10245;51.344;6.620;2023-07-30T03:20:28;14.10;90.40
20171;DHT22;10245;51.344;6.620;2023-07-30T03:22:51;14.10;90.30
20171;DHT22;10245;51.344;6.620;2023-07-30T03:25:14;14.10;90.50
20171;DHT22;10245;51.344;6.620;2023-07-30T03:27:37;14.10;90.40
20171;DHT22;10245;51.344;6.620;2023-07-30T03:30:01;14.10;90.60
20171;DHT22;10245;51.344;6.620;2023-07-30T03:32:26;14.00;90.60
20171;DHT22;10245;51.344;6.620;2023-07-30T03:34:50;14.10;90.90
20171;DHT22;10245;51.344;6.620;2023-07-30T03:37:16;14.10;90.90
20171;DHT22;10245;51.344;6.620;2023-07-30T03:39:39;14.20;90.70
20171;DHT22;10245;51.344;6.620;2023-07-30T03:42:03;14.20;90.50
20171;DHT22;10245;51.344;6.620;2023-07-30T03:44:29;14.20;90.30
20171;DHT22;10245;51.344;6.620;2023-07-30T03:46:52;14.10;90.40
20171;DHT22;10245;51.344;6.620;2023-07-30T03:49:15;14.10;90.50
20171;DHT22;10245;51.344;6.620;2023-07-30T03:51:38;14.20;90.50
20171;DHT22;10245;51.344;6.620;2023-07-30T03:54:03;14.20;90.40
20171;DHT22;10245;51.344;6.620;2023-07-30T03:56:27;14.20;90.40
20171;DHT22;10245;51.344;6.620;2023-07-30T03:58:50;14.20;90.40
20171;DHT22;10245;51.344;6.620;2023-07-30T04:01:14;14.20;90.40
20171;DHT22;10245;51.344;6.620;2023-07-30T04:03:37;14.20;90.20
20171;DHT22;10245;51.344;6.620;2023-07-30T04:06:01;14.20;90.30
20171;DHT22;10245;51.344;6.620;2023-07-30T04:08:24;14.30;90.30
20171;DHT22;10245;51.344;6.620;2023-07-30T04:10:49;14.30;90.20
20171;DHT22;10245;51.344;6.620;2023-07-30T04:13:12;14.30;90.30
20171;DHT22;10245;51.344;6.620;2023-07-30T04:15:36;14.30;90.30
20171;DHT22;10245;51.344;6.620;2023-07-30T04:17:59;14.40;90.40
20171;DHT22;10245;51.344;6.620;2023-07-30T04:20:23;14.50;90.10
20171;DHT22;10245;51.344;6.620;2023-07-30T04:22:46;14.50;90.30
20171;DHT22;10245;51.344;6.620;2023-07-30T04:25:09;14.70;89.20
20171;DHT22;10245;51.344;6.620;2023-07-30T04:27:34;14.80;89.20
20171;DHT22;10245;51.344;6.620;2023-07-30T04:29:58;14.80;89.30
20171;DHT22;10245;51.344;6.620;2023-07-30T04:32:21;14.80;89.40
20171;DHT22;10245;51.344;6.620;2023-07-30T04:34:45;14.90;89.00
20171;DHT22;10245;51.344;6.620;2023-07-30T04:37:08;15.00;88.50
20171;DHT22;10245;51.344;6.620;2023-07-30T04:39:32;15.10;87.90
20171;DHT22;10245;51.344;6.620;2023-07-30T04:41:56;15.20;87.80
20171;DHT22;10245;51.344;6.620;2023-07-30T04:44:22;15.20;87.90
20171;DHT22;10245;51.344;6.620;2023-07-30T04:46:45;15.20;87.80
20171;DHT22;10245;51.344;6.620;2023-07-30T04:49:08;15.30;87.40
20171;DHT22;10245;51.344;6.620;2023-07-30T04:51:32;15.40;87.20
20171;DHT22;10245;51.344;6.620;2023-07-30T04:53:55;15.40;87.10
20171;DHT22;10245;51.344;6.620;2023-07-30T04:56:19;15.50;87.10
20171;DHT22;10245;51.344;6.620;2023-07-30T04:58:42;15.50;86.90
20171;DHT22;10245;51.344;6.620;2023-07-30T05:01:07;15.50;87.30
20171;DHT22;10245;51.344;6.620;2023-07-30T05:03:30;15.60;86.70
20171;DHT22;10245;51.344;6.620;2023-07-30T05:05:53;15.70;86.20
20171;DHT22;10245;51.344;6.620;2023-07-30T05:08:17;15.70;86.20
20171;DHT22;10245;51.344;6.620;2023-07-30T05:10:40;15.80;86.40
20171;DHT22;10245;51.344;6.620;2023-07-30T05:13:03;15.80;86.30
20171;DHT22;10245;51.344;6.620;2023-07-30T05:15:26;15.90;86.40
20171;DHT22;10245;51.344;6.620;2023-07-30T05:17:51;15.90;86.20
20171;DHT22;10245;51.344;6.620;2023-07-30T05:20:14;15.90;86.50
20171;DHT22;10245;51.344;6.620;2023-07-30T05:22:38;15.90;87.00
20171;DHT22;10245;51.344;6.620;2023-07-30T05:25:01;15.90;87.10
20171;DHT22;10245;51.344;6.620;2023-07-30T05:27:24;15.90;87.20
20171;DHT22;10245;51.344;6.620;2023-07-30T05:29:49;15.90;86.90
20171;DHT22;10245;51.344;6.620;2023-07-30T05:32:13;16.00;87.30
20171;DHT22;10245;51.344;6.620;2023-07-30T05:34:37;15.90;87.30
20171;DHT22;10245;51.344;6.620;2023-07-30T05:37:01;16.00;86.80
20171;DHT22;10245;51.344;6.620;2023-07-30T05:39:25;15.90;86.80
20171;DHT22;10245;51.344;6.620;2023-07-30T05:41:49;16.00;86.80
20171;DHT22;10245;51.344;6.620;2023-07-30T05:44:12;16.00;86.30
20171;DHT22;10245;51.344;6.620;2023-07-30T05:46:35;16.00;86.50
20171;DHT22;10245;51.344;6.620;2023-07-30T05:48:58;15.90;85.80
20171;DHT22;10245;51.344;6.620;2023-07-30T05:51:24;15.90;85.40
20171;DHT22;10245;51.344;6.620;2023-07-30T05:53:47;16.00;85.30
20171;DHT22;10245;51.344;6.620;2023-07-30T05:56:12;16.00;85.10
20171;DHT22;10245;51.344;6.620;2023-07-30T05:58:36;16.00;85.00
20171;DHT22;10245;51.344;6.620;2023-07-30T06:00:59;16.00;84.20
20171;DHT22;10245;51.344;6.620;2023-07-30T06:03:22;16.00;84.60
20171;DHT22;10245;51.344;6.620;2023-07-30T06:05:45;16.00;84.10
20171;DHT22;10245;51.344;6.620;2023-07-30T06:08:10;16.00;84.30
20171;DHT22;10245;51.344;6.620;2023-07-30T06:10:35;16.00;83.80
20171;DHT22;10245;51.344;6.620;2023-07-30T06:12:58;16.00;84.30
20171;DHT22;10245;51.344;6.620;2023-07-30T06:15:22;16.00;84.50
20171;DHT22;10245;51.344;6.620;2023-07-30T06:17:45;16.00;84.10
20171;DHT22;10245;51.344;6.620;2023-07-30T06:20:09;16.00;84.60
20171;DHT22;10245;51.344;6.620;2023-07-30T06:22:33;16.00;84.10
20171;DHT22;10245;51.344;6.620;2023-07-30T06:24:58;16.00;84.30
20171;DHT22;10245;51.344;6.620;2023-07-30T06:27:21;16.00;83.80
20171;DHT22;10245;51.344;6.620;2023-07-30T06:29:44;16.10;84.10
20171;DHT22;10245;51.344;6.620;2023-07-30T06:32:07;16.00;83.60
20171;DHT22;10245;51.344;6.620;2023-07-30T06:34:31;16.20;84.20
20171;DHT22;10245;51.344;6.620;2023-07-30T06:36:54;16.20;83.50
20171;DHT22;10245;51.344;6.620;2023-07-30T06:39:17;16.50;84.00
20171;DHT22;10245;51.344;6.620;2023-07-30T06:41:42;16.40;84.00
20171;DHT22;10245;51.344;6.620;2023-07-30T06:44:06;16.30;83.90
20171;DHT22;10245;51.344;6.620;2023-07-30T06:46:30;16.30;84.10
20171;DHT22;10245;51.344;6.620;2023-07-30T06:48:53;16.30;84.20
20171;DHT22;10245;51.344;6.620;2023-07-30T06:51:19;16.40;84.30
20171;DHT22;10245;51.344;6.620;2023-07-30T06:53:42;16.50;84.80
20171;DHT22;10245;51.344;6.620;2023-07-30T06:56:06;16.20;84.00
20171;DHT22;10245;51.344;6.620;2023-07-30T06:58:30;16.30;84.10
20171;DHT22;10245;51.344;6.620;2023-07-30T07:00:54;16.40;84.70
20171;DHT22;10245;51.344;6.620;2023-07-30T07:03:17;16.40;84.00
20171;DHT22;10245;51.344;6.620;2023-07-30T07:05:41;16.50;84.30
20171;DHT22;10245;51.344;6.620;2023-07-30T07:08:06;16.40;83.80
20171;DHT22;10245;51.344;6.620;2023-07-30T07:10:29;16.50;84.20
20171;DHT22;10245;51.344;6.620;2023-07-30T07:12:52;16.60;83.70
20171;DHT22;10245;51.344;6.620;2023-07-30T07:15:17;16.60;83.70
20171;DHT22;10245;51.344;6.620;2023-07-30T07:17:41;16.60;83.40
20171;DHT22;10245;51.344;6.620;2023-07-30T07:20:05;16.60;84.30
20171;DHT22;10245;51.344;6.620;2023-07-30T07:22:29;16.70;84.50
20171;DHT22;10245;51.344;6.620;2023-07-30T07:24:52;16.80;83.90
20171;DHT22;10245;51.344;6.620;2023-07-30T07:27:16;16.80;83.00
20171;DHT22;10245;51.344;6.620;2023-07-30T07:29:39;16.70;83.60
20171;DHT22;10245;51.344;6.620;2023-07-30T07:32:04;17.00;84.20
20171;DHT22;10245;51.344;6.620;2023-07-30T07:34:28;16.90;82.70
20171;DHT22;10245;51.344;6.620;2023-07-30T07:36:51;17.00;82.60
20171;DHT22;10245;51.344;6.620;2023-07-30T07:39:14;17.00;83.20
20171;DHT22;10245;51.344;6.620;2023-07-30T07:41:38;17.00;83.40
20171;DHT22;10245;51.344;6.620;2023-07-30T07:44:01;16.90;83.20
20171;DHT22;10245;51.344;6.620;2023-07-30T07:46:25;17.00;82.80
20171;DHT22;10245;51.344;6.620;2023-07-30T07:48:50;17.20;82.50
20171;DHT22;10245;51.344;6.620;2023-07-30T07:51:14;17.20;82.70
20171;DHT22;10245;51.344;6.620;2023-07-30T07:53:37;17.10;82.70
20171;DHT22;10245;51.344;6.620;2023-07-30T07:56:01;17.00;82.50
20171;DHT22;10245;51.344;6.620;2023-07-30T07:58:24;17.20;82.70
20171;DHT22;10245;51.344;6.620;2023-07-30T08:00:47;17.20;82.80
20171;DHT22;10245;51.344;6.620;2023-07-30T08:03:11;17.00;82.30
20171;DHT22;10245;51.344;6.620;2023-07-30T08:05:36;17.20;83.00
20171;DHT22;10245;51.344;6.620;2023-07-30T08:07:59;17.50;83.40
20171;DHT22;10245;51.344;6.620;2023-07-30T08:10:22;17.20;82.00
20171;DHT22;10245;51.344;6.620;2023-07-30T08:12:45;17.20;82.80
20171;DHT22;10245;51.344;6.620;2023-07-30T08:15:10;17.20;82.50
20171;DHT22;10245;51.344;6.620;2023-07-30T08:17:33;17.30;82.10
20171;DHT22;10245;51.344;6.620;2023-07-30T08:19:57;17.20;82.00
20171;DHT22;10245;51.344;6.620;2023-07-30T08:22:21;17.50;81.70
20171;DHT22;10245;51.344;6.620;2023-07-30T08:24:44;17.50;82.40
20171;DHT22;10245;51.344;6.620;2023-07-30T08:27:08;17.50;81.70
20171;DHT22;10245;51.344;6.620;2023-07-30T08:29:31;17.60;82.40
20171;DHT22;10245;51.344;6.620;2023-07-30T08:31:56;17.60;81.90
20171;DHT22;10245;51.344;6.620;2023-07-30T08:34:21;17.70;81.90
20171;DHT22;10245;51.344;6.620;2023-07-30T08:36:44;17.50;81.10
20171;DHT22;10245;51.344;6.620;2023-07-30T08:39:09;17.50;82.20
20171;DHT22;10245;51.344;6.620;2023-07-30T08:41:32;17.50;80.80
20171;DHT22;10245;51.344;6.620;2023-07-30T08:43:55;17.50;81.70
20171;DHT22;10245;51.344;6.620;2023-07-30T08:46:19;17.70;82.10
20171;DHT22;10245;51.344;6.620;2023-07-30T08:48:42;17.70;80.30
20171;DHT22;10245;51.344;6.620;2023-07-30T08:51:08;17.70;80.60
20171;DHT22;10245;51.344;6.620;2023-07-30T08:53:32;17.70;80.60
20171;DHT22;10245;51.344;6.620;2023-07-30T08:55:57;17.90;80.50
20171;DHT22;10245;51.344;6.620;2023-07-30T08:58:22;18.10;81.40
20171;DHT22;10245;51.344;6.620;2023-07-30T09:00:46;18.40;80.80
20171;DHT22;10245;51.344;6.620;2023-07-30T09:03:15;18.20;78.80
20171;DHT22;10245;51.344;6.620;2023-07-30T09:05:40;18.20;80.10
20171;DHT22;10245;51.344;6.620;2023-07-30T09:08:03;18.30;77.50
20171;DHT22;10245;51.344;6.620;2023-07-30T09:10:27;18.10;78.80
20171;DHT22;10245;51.344;6.620;2023-07-30T09:12:54;18.30;79.00
20171;DHT22;10245;51.344;6.620;2023-07-30T09:15:18;18.20;79.10
20171;DHT22;10245;51.344;6.620;2023-07-30T09:17:41;18.50;78.30
20171;DHT22;10245;51.344;6.620;2023-07-30T09:20:05;18.80;76.90
20171;DHT22;10245;51.344;6.620;2023-07-30T09:22:31;18.60;75.50
20171;DHT22;10245;51.344;6.620;2023-07-30T09:24:58;18.50;75.70
20171;DHT22;10245;51.344;6.620;2023-07-30T09:27:22;18.60;76.80
20171;DHT22;10245;51.344;6.620;2023-07-30T09:29:52;18.80;76.20
20171;DHT22;10245;51.344;6.620;2023-07-30T09:32:15;18.90;74.90
20171;DHT22;10245;51.344;6.620;2023-07-30T09:34:44;19.00;75.80
20171;DHT22;10245;51.344;6.620;2023-07-30T09:37:08;19.10;73.90
20171;DHT22;10245;51.344;6.620;2023-07-30T09:39:32;19.20;73.40
20171;DHT22;10245;51.344;6.620;2023-07-30T09:42:00;19.20;72.90
20171;DHT22;10245;51.344;6.620;2023-07-30T09:44:23;19.00;74.80
20171;DHT22;10245;51.344;6.620;2023-07-30T09:46:49;19.20;73.90
20171;DHT22;10245;51.344;6.620;2023-07-30T09:49:12;19.30;73.60
20171;DHT22;10245;51.344;6.620;2023-07-30T09:51:37;19.70;73.60
20171;DHT22;10245;51.344;6.620;2023-07-30T09:54:01;19.70;73.20
20171;DHT22;10245;51.344;6.620;2023-07-30T09:56:25;19.60;71.60
20171;DHT22;10245;51.344;6.620;2023-07-30T09:58:48;19.80;71.40
20171;DHT22;10245;51.344;6.620;2023-07-30T10:01:11;19.70;71.30
20171;DHT22;10245;51.344;6.620;2023-07-30T10:03:36;19.60;72.00
20171;DHT22;10245;51.344;6.620;2023-07-30T10:06:03;19.50;70.00
20171;DHT22;10245;51.344;6.620;2023-07-30T10:08:29;19.40;68.90
20171;DHT22;10245;51.344;6.620;2023-07-30T10:10:55;19.60;68.30
20171;DHT22;10245;51.344;6.620;2023-07-30T10:13:19;19.60;69.20
20171;DHT22;10245;51.344;6.620;2023-07-30T10:15:43;19.60;69.20
20171;DHT22;10245;51.344;6.620;2023-07-30T10:18:07;19.50;68.80
20171;DHT22;10245;51.344;6.620;2023-07-30T10:20:32;19.60;67.50
20171;DHT22;10245;51.344;6.620;2023-07-30T10:22:57;19.80;67.30
20171;DHT22;10245;51.344;6.620;2023-07-30T10:25:22;19.70;68.50
20171;DHT22;10245;51.344;6.620;2023-07-30T10:27:50;19.80;68.30
20171;DHT22;10245;51.344;6.620;2023-07-30T10:30:15;20.30;67.90
20171;DHT22;10245;51.344;6.620;2023-07-30T10:32:40;20.90;69.80
20171;DHT22;10245;51.344;6.620;2023-07-30T10:35:04;20.90;67.30
20171;DHT22;10245;51.344;6.620;2023-07-30T10:37:28;20.20;66.30
20171;DHT22;10245;51.344;6.620;2023-07-30T10:39:52;20.50;65.70
20171;DHT22;10245;51.344;6.620;2023-07-30T10:42:15;20.50;65.30
20171;DHT22;10245;51.344;6.620;2023-07-30T10:44:44;20.20;66.60
20171;DHT22;10245;51.344;6.620;2023-07-30T10:47:07;20.30;67.10
20171;DHT22;10245;51.344;6.620;2023-07-30T10:49:50;20.30;65.10
20171;DHT22;10245;51.344;6.620;2023-07-30T10:52:15;20.40;65.20
20171;DHT22;10245;51.344;6.620;2023-07-30T10:54:40;20.50;65.20
20171;DHT22;10245;51.344;6.620;2023-07-30T10:57:04;20.60;63.40
20171;DHT22;10245;51.344;6.620;2023-07-30T11:01:58;21.10;63.30
20171;DHT22;10245;51.344;6.620;2023-07-30T11:04:21;20.80;63.20
20171;DHT22;10245;51.344;6.620;2023-07-30T11:06:46;20.60;64.20
20171;DHT22;10245;51.344;6.620;2023-07-30T11:09:18;20.60;65.90
20171;DHT22;10245;51.344;6.620;2023-07-30T11:11:44;21.00;64.70
20171;DHT22;10245;51.344;6.620;2023-07-30T11:14:14;21.20;64.30
20171;DHT22;10245;51.344;6.620;2023-07-30T11:16:38;21.30;63.80
20171;DHT22;10245;51.344;6.620;2023-07-30T11:19:11;21.50;63.40
20171;DHT22;10245;51.344;6.620;2023-07-30T11:21:44;21.10;62.70
20171;DHT22;10245;51.344;6.620;2023-07-30T11:24:07;20.70;64.30
20171;DHT22;10245;51.344;6.620;2023-07-30T11:26:31;20.40;64.50
20171;DHT22;10245;51.344;6.620;2023-07-30T11:28:56;20.40;64.50
20171;DHT22;10245;51.344;6.620;2023-07-30T11:31:19;20.70;65.50
20171;DHT22;10245;51.344;6.620;2023-07-30T11:33:46;21.20;62.80
20171;DHT22;10245;51.344;6.620;2023-07-30T11:36:12;21.30;64.10
20171;DHT22;10245;51.344;6.620;2023-07-30T11:38:37;21.00;62.60
20171;DHT22;10245;51.344;6.620;2023-07-30T11:41:01;20.90;63.90
20171;DHT22;10245;51.344;6.620;2023-07-30T11:43:25;21.40;63.00
20171;DHT22;10245;51.344;6.620;2023-07-30T11:46:06;21.60;60.90
20171;DHT22;10245;51.344;6.620;2023-07-30T11:48:30;21.50;61.40
20171;DHT22;10245;51.344;6.620;2023-07-30T11:50:54;21.50;61.30
20171;DHT22;10245;51.344;6.620;2023-07-30T11:53:18;21.50;63.80
20171;DHT22;10245;51.344;6.620;2023-07-30T11:55:42;21.80;59.00
20171;DHT22;10245;51.344;6.620;2023-07-30T11:58:06;21.50;61.00
20171;DHT22;10245;51.344;6.620;2023-07-30T12:00:31;21.40;58.50
20171;DHT22;10245;51.344;6.620;2023-07-30T12:02:56;21.50;60.20
20171;DHT22;10245;51.344;6.620;2023-07-30T12:05:31;21.20;61.70
20171;DHT22;10245;51.344;6.620;2023-07-30T12:07:55;21.40;64.60
20171;DHT22;10245;51.344;6.620;2023-07-30T12:10:19;21.60;61.10
20171;DHT22;10245;51.344;6.620;2023-07-30T12:12:46;21.10;61.00
20171;DHT22;10245;51.344;6.620;2023-07-30T12:15:10;21.00;62.30
20171;DHT22;10245;51.344;6.620;2023-07-30T12:17:34;21.00;62.40
20171;DHT22;10245;51.344;6.620;2023-07-30T12:20:01;21.00;62.70
20171;DHT22;10245;51.344;6.620;2023-07-30T12:22:28;21.20;63.20
20171;DHT22;10245;51.344;6.620;2023-07-30T12:24:51;21.00;61.40
20171;DHT22;10245;51.344;6.620;2023-07-30T12:27:14;20.70;61.90
20171;DHT22;10245;51.344;6.620;2023-07-30T12:29:37;20.90;62.70
20171;DHT22;10245;51.344;6.620;2023-07-30T12:32:01;21.10;58.90
20171;DHT22;10245;51.344;6.620;2023-07-30T12:34:25;21.10;57.60
20171;DHT22;10245;51.344;6.620;2023-07-30T12:36:50;21.40;58.30
20171;DHT22;10245;51.344;6.620;2023-07-30T12:39:13;21.00;58.40
20171;DHT22;10245;51.344;6.620;2023-07-30T12:41:36;21.20;60.60
20171;DHT22;10245;51.344;6.620;2023-07-30T12:44:00;21.50;60.60
20171;DHT22;10245;51.344;6.620;2023-07-30T12:46:25;21.70;58.50
20171;DHT22;10245;51.344;6.620;2023-07-30T12:48:52;21.50;58.80
20171;DHT22;10245;51.344;6.620;2023-07-30T12:51:15;21.10;59.80
20171;DHT22;10245;51.344;6.620;2023-07-30T12:53:41;21.00;60.30
20171;DHT22;10245;51.344;6.620;2023-07-30T12:56:04;20.90;59.00
20171;DHT22;10245;51.344;6.620;2023-07-30T12:58:27;20.90;60.10
20171;DHT22;10245;51.344;6.620;2023-07-30T13:00:50;21.10;59.10
20171;DHT22;10245;51.344;6.620;2023-07-30T13:03:14;21.60;63.00
20171;DHT22;10245;51.344;6.620;2023-07-30T13:05:38;21.20;59.00
20171;DHT22;10245;51.344;6.620;2023-07-30T13:08:01;21.60;58.40
20171;DHT22;10245;51.344;6.620;2023-07-30T13:10:26;21.50;60.50
20171;DHT22;10245;51.344;6.620;2023-07-30T13:12:49;21.80;59.80
20171;DHT22;10245;51.344;6.620;2023-07-30T13:15:13;21.70;60.50
20171;DHT22;10245;51.344;6.620;2023-07-30T13:17:37;21.90;59.30
20171;DHT22;10245;51.344;6.620;2023-07-30T13:20:00;21.80;58.80
20171;DHT22;10245;51.344;6.620;2023-07-30T13:22:24;22.20;57.50
20171;DHT22;10245;51.344;6.620;2023-07-30T13:24:47;22.90;62.00
20171;DHT22;10245;51.344;6.620;2023-07-30T13:27:12;22.60;57.10
20171;DHT22;10245;51.344;6.620;2023-07-30T13:29:35;22.50;60.00
20171;DHT22;10245;51.344;6.620;2023-07-30T13:31:58;22.30;56.00
20171;DHT22;10245;51.344;6.620;2023-07-30T13:34:22;22.00;59.60
20171;DHT22;10245;51.344;6.620;2023-07-30T13:36:45;22.10;58.60
20171;DHT22;10245;51.344;6.620;2023-07-30T13:39:08;21.90;60.00
20171;DHT22;10245;51.344;6.620;2023-07-30T13:41:32;21.20;60.40
20171;DHT22;10245;51.344;6.620;2023-07-30T13:43:59;21.10;59.30
20171;DHT22;10245;51.344;6.620;2023-07-30T13:46:22;21.10;60.10
20171;DHT22;10245;51.344;6.620;2023-07-30T13:48:45;21.50;59.70
20171;DHT22;10245;51.344;6.620;2023-07-30T13:51:09;21.50;61.60
20171;DHT22;10245;51.344;6.620;2023-07-30T13:53:32;21.30;60.40
20171;DHT22;10245;51.344;6.620;2023-07-30T13:55:56;21.30;63.30
20171;DHT22;10245;51.344;6.620;2023-07-30T13:58:20;21.40;63.10
20171;DHT22;10245;51.344;6.620;2023-07-30T14:01:19;21.30;60.00
20171;DHT22;10245;51.344;6.620;2023-07-30T14:04:10;21.20;60.70
20171;DHT22;10245;51.344;6.620;2023-07-30T14:07:18;21.60;62.50
20171;DHT22;10245;51.344;6.620;2023-07-30T14:10:26;21.70;59.90
20171;DHT22;10245;51.344;6.620;2023-07-30T14:20:35;21.80;60.90
20171;DHT22;10245;51.344;6.620;2023-07-30T14:23:25;22.00;60.60
20171;DHT22;10245;51.344;6.620;2023-07-30T14:26:06;21.50;58.30
20171;DHT22;10245;51.344;6.620;2023-07-30T14:31:49;21.80;58.20
20171;DHT22;10245;51.344;6.620;2023-07-30T14:34:53;21.90;58.00
20171;DHT22;10245;51.344;6.620;2023-07-30T14:37:59;21.70;57.30
20171;DHT22;10245;51.344;6.620;2023-07-30T14:41:08;22.00;57.70
20171;DHT22;10245;51.344;6.620;2023-07-30T14:44:14;21.90;58.90
20171;DHT22;10245;51.344;6.620;2023-07-30T14:47:06;21.70;59.50
20171;DHT22;10245;51.344;6.620;2023-07-30T14:50:06;22.00;61.20
20171;DHT22;10245;51.344;6.620;2023-07-30T14:53:19;21.90;59.10
20171;DHT22;10245;51.344;6.620;2023-07-30T14:59:39;22.00;59.60
20171;DHT22;10245;51.344;6.620;2023-07-30T15:02:45;22.20;57.30
20171;DHT22;10245;51.344;6.620;2023-07-30T15:09:04;22.20;59.30
20171;DHT22;10245;51.344;6.620;2023-07-30T15:12:04;22.00;57.30
20171;DHT22;10245;51.344;6.620;2023-07-30T15:15:21;21.90;55.50
20171;DHT22;10245;51.344;6.620;2023-07-30T15:18:15;22.10;57.50
20171;DHT22;10245;51.344;6.620;2023-07-30T15:21:21;22.00;53.50
20171;DHT22;10245;51.344;6.620;2023-07-30T15:24:21;21.90;56.00
20171;DHT22;10245;51.344;6.620;2023-07-30T15:27:35;21.80;55.40
20171;DHT22;10245;51.344;6.620;2023-07-30T15:30:55;21.80;54.60
20171;DHT22;10245;51.344;6.620;2023-07-30T15:34:10;22.40;54.20
20171;DHT22;10245;51.344;6.620;2023-07-30T15:36:57;22.50;56.50
20171;DHT22;10245;51.344;6.620;2023-07-30T15:39:51;22.30;54.50
20171;DHT22;10245;51.344;6.620;2023-07-30T15:43:08;22.50;56.30
20171;DHT22;10245;51.344;6.620;2023-07-30T15:46:26;23.00;52.90
20171;DHT22;10245;51.344;6.620;2023-07-30T15:53:05;23.10;51.40